Terminal Aerodrome Forecast
Issued by NWS

Home | Current Version | Previous Version | Text Only | Print | Product List | Glossary Off
Versions: 1 2 3 4 5 6 7 8 9 10 11 12 13 14 15

547
FTUS43 KBIS 192335
TAFDIK
TAF
KDIK 192335Z 2000/2024 11005KT P6SM SKC
     FM201200 24004KT P6SM SKC=

USA.gov is the U.S. government's official web portal to all federal, state and local government web resources and services.